sensor_id;sensor_type;location;lat;lon;timestamp;pressure;altitude;pressure_sealevel;temperature;humidity
39357;BME280;25077;50.302;18.996;2022-10-16T00:00:21;98314.63;;;12.13;69.85
39357;BME280;25077;50.302;18.996;2022-10-16T00:03:23;98317.00;;;12.14;69.11
39357;BME280;25077;50.302;18.996;2022-10-16T00:06:27;98325.56;;;12.16;69.16
39357;BME280;25077;50.302;18.996;2022-10-16T00:09:30;98328.66;;;12.18;69.00
39357;BME280;25077;50.302;18.996;2022-10-16T00:12:33;98319.81;;;12.21;68.59
39357;BME280;25077;50.302;18.996;2022-10-16T00:15:35;98322.19;;;12.26;68.38
39357;BME280;25077;50.302;18.996;2022-10-16T00:18:38;98310.13;;;12.24;69.45
39357;BME280;25077;50.302;18.996;2022-10-16T00:21:40;98317.56;;;12.27;68.28
39357;BME280;25077;50.302;18.996;2022-10-16T00:24:43;98324.53;;;12.28;68.19
39357;BME280;25077;50.302;18.996;2022-10-16T00:27:45;98320.66;;;12.29;68.71
39357;BME280;25077;50.302;18.996;2022-10-16T00:30:47;98317.50;;;12.23;68.90
39357;BME280;25077;50.302;18.996;2022-10-16T00:33:49;98317.03;;;12.18;69.56
39357;BME280;25077;50.302;18.996;2022-10-16T00:36:52;98309.94;;;12.09;70.08
39357;BME280;25077;50.302;18.996;2022-10-16T00:39:56;98316.09;;;12.06;69.53
39357;BME280;25077;50.302;18.996;2022-10-16T00:42:58;98312.53;;;12.02;70.43
39357;BME280;25077;50.302;18.996;2022-10-16T00:46:00;98318.72;;;11.99;70.86
39357;BME280;25077;50.302;18.996;2022-10-16T00:49:05;98318.63;;;11.92;71.90
39357;BME280;25077;50.302;18.996;2022-10-16T00:52:08;98329.47;;;11.92;70.48
39357;BME280;25077;50.302;18.996;2022-10-16T00:55:13;98321.69;;;11.91;70.17
39357;BME280;25077;50.302;18.996;2022-10-16T00:58:15;98325.19;;;11.91;69.94
39357;BME280;25077;50.302;18.996;2022-10-16T01:01:17;98325.16;;;11.88;71.26
39357;BME280;25077;50.302;18.996;2022-10-16T01:04:19;98324.78;;;11.89;70.02
39357;BME280;25077;50.302;18.996;2022-10-16T01:07:32;98326.78;;;11.92;70.29
39357;BME280;25077;50.302;18.996;2022-10-16T01:10:41;98331.81;;;11.94;69.98
39357;BME280;25077;50.302;18.996;2022-10-16T01:13:53;98335.72;;;11.96;69.65
39357;BME280;25077;50.302;18.996;2022-10-16T01:17:00;98329.50;;;11.96;69.82
39357;BME280;25077;50.302;18.996;2022-10-16T01:20:09;98327.28;;;12.01;68.91
39357;BME280;25077;50.302;18.996;2022-10-16T01:23:27;98334.69;;;12.04;69.38
39357;BME280;25077;50.302;18.996;2022-10-16T01:26:49;98331.97;;;12.04;69.07
39357;BME280;25077;50.302;18.996;2022-10-16T01:29:58;98338.56;;;12.03;70.00
39357;BME280;25077;50.302;18.996;2022-10-16T01:33:06;98329.56;;;11.99;69.12
39357;BME280;25077;50.302;18.996;2022-10-16T01:36:12;98333.00;;;11.96;69.66
39357;BME280;25077;50.302;18.996;2022-10-16T01:39:20;98336.16;;;11.98;70.21
39357;BME280;25077;50.302;18.996;2022-10-16T01:42:27;98331.13;;;12.00;69.87
39357;BME280;25077;50.302;18.996;2022-10-16T01:45:34;98323.38;;;11.99;69.96
39357;BME280;25077;50.302;18.996;2022-10-16T01:48:38;98332.69;;;12.01;69.56
39357;BME280;25077;50.302;18.996;2022-10-16T01:51:42;98332.69;;;12.01;69.20
39357;BME280;25077;50.302;18.996;2022-10-16T01:54:49;98335.41;;;12.01;68.82
39357;BME280;25077;50.302;18.996;2022-10-16T01:57:53;98331.91;;;12.01;68.48
39357;BME280;25077;50.302;18.996;2022-10-16T02:00:58;98341.22;;;12.00;69.61
39357;BME280;25077;50.302;18.996;2022-10-16T02:04:03;98344.66;;;11.97;70.03
39357;BME280;25077;50.302;18.996;2022-10-16T02:07:06;98347.69;;;11.92;69.48
39357;BME280;25077;50.302;18.996;2022-10-16T02:10:09;98348.78;;;11.87;68.83
39357;BME280;25077;50.302;18.996;2022-10-16T02:13:15;98356.78;;;11.80;69.27
39357;BME280;25077;50.302;18.996;2022-10-16T02:16:20;98346.91;;;11.68;69.58
39357;BME280;25077;50.302;18.996;2022-10-16T02:19:22;98364.84;;;11.73;69.30
39357;BME280;25077;50.302;18.996;2022-10-16T02:22:27;98362.50;;;11.71;69.86
39357;BME280;25077;50.302;18.996;2022-10-16T02:25:31;98358.94;;;11.67;70.35
39357;BME280;25077;50.302;18.996;2022-10-16T02:28:40;98355.03;;;11.65;70.25
39357;BME280;25077;50.302;18.996;2022-10-16T02:31:48;98355.31;;;11.60;69.66
39357;BME280;25077;50.302;18.996;2022-10-16T02:34:52;98356.81;;;11.57;69.70
39357;BME280;25077;50.302;18.996;2022-10-16T02:37:55;98350.97;;;11.55;70.47
39357;BME280;25077;50.302;18.996;2022-10-16T02:40:58;98349.31;;;11.50;70.79
39357;BME280;25077;50.302;18.996;2022-10-16T02:44:00;98351.25;;;11.50;69.94
39357;BME280;25077;50.302;18.996;2022-10-16T02:47:03;98365.19;;;11.48;70.40
39357;BME280;25077;50.302;18.996;2022-10-16T02:50:06;98356.63;;;11.46;69.97
39357;BME280;25077;50.302;18.996;2022-10-16T02:53:08;98357.75;;;11.45;70.53
39357;BME280;25077;50.302;18.996;2022-10-16T02:56:10;98349.56;;;11.42;71.11
39357;BME280;25077;50.302;18.996;2022-10-16T02:59:12;98362.69;;;11.40;70.91
39357;BME280;25077;50.302;18.996;2022-10-16T03:02:16;98366.56;;;11.39;71.17
39357;BME280;25077;50.302;18.996;2022-10-16T03:05:18;98364.22;;;11.37;71.21
39357;BME280;25077;50.302;18.996;2022-10-16T03:08:20;98368.47;;;11.38;69.95
39357;BME280;25077;50.302;18.996;2022-10-16T03:11:24;98373.13;;;11.38;71.31
39357;BME280;25077;50.302;18.996;2022-10-16T03:14:26;98366.50;;;11.35;71.56
39357;BME280;25077;50.302;18.996;2022-10-16T03:17:31;98381.25;;;11.38;71.16
39357;BME280;25077;50.302;18.996;2022-10-16T03:20:33;98374.31;;;11.40;70.50
39357;BME280;25077;50.302;18.996;2022-10-16T03:23:35;98374.03;;;11.45;71.17
39357;BME280;25077;50.302;18.996;2022-10-16T03:26:37;98379.97;;;11.51;70.15
39357;BME280;25077;50.302;18.996;2022-10-16T03:29:40;98380.41;;;11.53;70.13
39357;BME280;25077;50.302;18.996;2022-10-16T03:32:43;98383.53;;;11.55;70.48
39357;BME280;25077;50.302;18.996;2022-10-16T03:35:50;98382.34;;;11.52;71.52
39357;BME280;25077;50.302;18.996;2022-10-16T03:38:53;98388.09;;;11.51;70.25
39357;BME280;25077;50.302;18.996;2022-10-16T03:41:55;98392.31;;;11.48;70.69
39357;BME280;25077;50.302;18.996;2022-10-16T03:44:57;98398.09;;;11.47;69.74
39357;BME280;25077;50.302;18.996;2022-10-16T03:48:01;98389.88;;;11.43;70.95
39357;BME280;25077;50.302;18.996;2022-10-16T03:51:04;98399.16;;;11.42;70.14
39357;BME280;25077;50.302;18.996;2022-10-16T03:54:06;98396.81;;;11.41;71.39
39357;BME280;25077;50.302;18.996;2022-10-16T03:57:08;98390.97;;;11.39;71.41
39357;BME280;25077;50.302;18.996;2022-10-16T04:00:11;98395.31;;;11.43;71.55
39357;BME280;25077;50.302;18.996;2022-10-16T04:03:15;98386.81;;;11.45;70.89
39357;BME280;25077;50.302;18.996;2022-10-16T04:06:17;98391.53;;;11.48;70.39
39357;BME280;25077;50.302;18.996;2022-10-16T04:09:19;98398.59;;;11.52;71.06
39357;BME280;25077;50.302;18.996;2022-10-16T04:12:22;98395.16;;;11.55;71.80
39357;BME280;25077;50.302;18.996;2022-10-16T04:15:25;98405.31;;;11.59;70.55
39357;BME280;25077;50.302;18.996;2022-10-16T04:18:28;98393.66;;;11.58;70.30
39357;BME280;25077;50.302;18.996;2022-10-16T04:21:30;98408.13;;;11.66;70.90
39357;BME280;25077;50.302;18.996;2022-10-16T04:24:32;98402.00;;;11.69;70.20
39357;BME280;25077;50.302;18.996;2022-10-16T04:27:34;98406.25;;;11.70;71.02
39357;BME280;25077;50.302;18.996;2022-10-16T04:30:37;98399.69;;;11.71;70.86
39357;BME280;25077;50.302;18.996;2022-10-16T04:33:43;98393.13;;;11.72;70.61
39357;BME280;25077;50.302;18.996;2022-10-16T04:36:47;98382.66;;;11.74;69.85
39357;BME280;25077;50.302;18.996;2022-10-16T04:39:49;98392.81;;;11.77;70.91
39357;BME280;25077;50.302;18.996;2022-10-16T04:42:51;98399.78;;;11.78;70.72
39357;BME280;25077;50.302;18.996;2022-10-16T04:45:53;98405.22;;;11.78;70.60
39357;BME280;25077;50.302;18.996;2022-10-16T04:48:56;98409.50;;;11.79;69.91
39357;BME280;25077;50.302;18.996;2022-10-16T04:51:59;98397.88;;;11.78;70.14
39357;BME280;25077;50.302;18.996;2022-10-16T04:55:01;98406.38;;;11.77;69.51
39357;BME280;25077;50.302;18.996;2022-10-16T04:58:03;98408.69;;;11.75;70.20
39357;BME280;25077;50.302;18.996;2022-10-16T05:01:05;98407.47;;;11.72;69.42
39357;BME280;25077;50.302;18.996;2022-10-16T05:04:09;98406.25;;;11.70;70.21
39357;BME280;25077;50.302;18.996;2022-10-16T05:07:11;98412.84;;;11.69;69.46
39357;BME280;25077;50.302;18.996;2022-10-16T05:10:13;98407.75;;;11.67;70.92
39357;BME280;25077;50.302;18.996;2022-10-16T05:13:15;98416.25;;;11.66;69.60
39357;BME280;25077;50.302;18.996;2022-10-16T05:16:17;98427.47;;;11.64;71.03
39357;BME280;25077;50.302;18.996;2022-10-16T05:19:21;98440.97;;;11.61;70.18
39357;BME280;25077;50.302;18.996;2022-10-16T05:22:23;98436.56;;;11.52;71.53
39357;BME280;25077;50.302;18.996;2022-10-16T05:25:25;98446.16;;;11.50;70.78
39357;BME280;25077;50.302;18.996;2022-10-16T05:28:28;98449.25;;;11.48;70.73
39357;BME280;25077;50.302;18.996;2022-10-16T05:31:31;98449.25;;;11.48;70.92
39357;BME280;25077;50.302;18.996;2022-10-16T05:34:34;98452.75;;;11.49;71.30
39357;BME280;25077;50.302;18.996;2022-10-16T05:37:36;98457.81;;;11.50;70.28
39357;BME280;25077;50.302;18.996;2022-10-16T05:40:38;98458.28;;;11.52;70.41
39357;BME280;25077;50.302;18.996;2022-10-16T05:43:40;98456.84;;;11.59;70.26
39357;BME280;25077;50.302;18.996;2022-10-16T05:46:42;98458.41;;;11.60;70.22
39357;BME280;25077;50.302;18.996;2022-10-16T05:49:46;98461.53;;;11.62;70.26
39357;BME280;25077;50.302;18.996;2022-10-16T05:52:48;98465.88;;;11.66;70.07
39357;BME280;25077;50.302;18.996;2022-10-16T05:55:52;98469.50;;;11.74;71.07
39357;BME280;25077;50.302;18.996;2022-10-16T05:58:55;98482.75;;;11.79;69.69
39357;BME280;25077;50.302;18.996;2022-10-16T06:01:57;98484.41;;;11.83;69.98
39357;BME280;25077;50.302;18.996;2022-10-16T06:05:00;98492.66;;;11.91;69.62
39357;BME280;25077;50.302;18.996;2022-10-16T06:08:02;98487.31;;;11.94;69.33
39357;BME280;25077;50.302;18.996;2022-10-16T06:11:06;98494.78;;;12.01;70.12
39357;BME280;25077;50.302;18.996;2022-10-16T06:14:08;98497.19;;;12.06;69.71
39357;BME280;25077;50.302;18.996;2022-10-16T06:17:10;98507.38;;;12.13;69.85
39357;BME280;25077;50.302;18.996;2022-10-16T06:20:14;98508.66;;;12.19;70.12
39357;BME280;25077;50.302;18.996;2022-10-16T06:23:16;98514.56;;;12.24;70.08
39357;BME280;25077;50.302;18.996;2022-10-16T06:26:19;98511.16;;;12.31;68.88
39357;BME280;25077;50.302;18.996;2022-10-16T06:29:22;98508.53;;;12.34;69.32
39357;BME280;25077;50.302;18.996;2022-10-16T06:32:24;98526.53;;;12.46;69.71
39357;BME280;25077;50.302;18.996;2022-10-16T06:35:27;98513.91;;;12.57;68.64
39357;BME280;25077;50.302;18.996;2022-10-16T06:38:32;98524.94;;;12.68;69.02
39357;BME280;25077;50.302;18.996;2022-10-16T06:41:35;98528.53;;;12.76;68.44
39357;BME280;25077;50.302;18.996;2022-10-16T06:44:49;98532.22;;;12.87;68.55
39357;BME280;25077;50.302;18.996;2022-10-16T06:47:51;98530.41;;;12.95;67.17
39357;BME280;25077;50.302;18.996;2022-10-16T06:50:58;98524.34;;;13.05;68.02
39357;BME280;25077;50.302;18.996;2022-10-16T06:54:01;98531.47;;;13.17;67.16
39357;BME280;25077;50.302;18.996;2022-10-16T06:57:05;98541.28;;;13.25;66.80
39357;BME280;25077;50.302;18.996;2022-10-16T07:00:09;98541.44;;;13.35;67.06
39357;BME280;25077;50.302;18.996;2022-10-16T07:03:11;98543.84;;;13.44;66.34
39357;BME280;25077;50.302;18.996;2022-10-16T07:06:15;98545.13;;;13.54;66.18
39357;BME280;25077;50.302;18.996;2022-10-16T07:09:18;98543.31;;;13.65;65.54
39357;BME280;25077;50.302;18.996;2022-10-16T07:12:20;98544.59;;;13.75;65.68
39357;BME280;25077;50.302;18.996;2022-10-16T07:15:22;98540.78;;;13.83;65.82
39357;BME280;25077;50.302;18.996;2022-10-16T07:18:25;98538.50;;;13.88;65.41
39357;BME280;25077;50.302;18.996;2022-10-16T07:21:32;98547.16;;;13.94;64.86
39357;BME280;25077;50.302;18.996;2022-10-16T07:24:36;98544.94;;;14.03;65.20
39357;BME280;25077;50.302;18.996;2022-10-16T07:27:38;98543.44;;;14.09;64.74
39357;BME280;25077;50.302;18.996;2022-10-16T07:30:40;98553.56;;;14.12;63.80
39357;BME280;25077;50.302;18.996;2022-10-16T07:33:43;98554.75;;;14.15;64.14
39357;BME280;25077;50.302;18.996;2022-10-16T07:36:48;98565.75;;;14.26;63.52
39357;BME280;25077;50.302;18.996;2022-10-16T07:39:51;98560.75;;;14.35;63.46
39357;BME280;25077;50.302;18.996;2022-10-16T07:42:53;98553.81;;;14.41;63.62
39357;BME280;25077;50.302;18.996;2022-10-16T07:45:55;98553.13;;;14.51;63.06
39357;BME280;25077;50.302;18.996;2022-10-16T07:48:58;98561.00;;;14.60;63.05
39357;BME280;25077;50.302;18.996;2022-10-16T07:52:01;98549.75;;;14.68;62.66
39357;BME280;25077;50.302;18.996;2022-10-16T07:55:03;98557.22;;;14.75;62.72
39357;BME280;25077;50.302;18.996;2022-10-16T07:58:06;98568.94;;;14.83;62.23
39357;BME280;25077;50.302;18.996;2022-10-16T08:01:09;98567.41;;;14.89;62.12
39357;BME280;25077;50.302;18.996;2022-10-16T08:04:12;98579.94;;;14.97;62.29
39357;BME280;25077;50.302;18.996;2022-10-16T08:07:15;98582.34;;;15.02;62.16
39357;BME280;25077;50.302;18.996;2022-10-16T08:10:19;98570.31;;;15.10;61.58
39357;BME280;25077;50.302;18.996;2022-10-16T08:13:22;98566.50;;;15.25;61.74
39357;BME280;25077;50.302;18.996;2022-10-16T08:16:24;98563.84;;;15.40;61.27
39357;BME280;25077;50.302;18.996;2022-10-16T08:19:26;98566.22;;;15.52;60.37
39357;BME280;25077;50.302;18.996;2022-10-16T08:22:29;98565.91;;;15.68;59.22
39357;BME280;25077;50.302;18.996;2022-10-16T08:25:34;98564.81;;;15.90;60.69
39357;BME280;25077;50.302;18.996;2022-10-16T08:28:37;98563.31;;;16.07;59.15
39357;BME280;25077;50.302;18.996;2022-10-16T08:31:39;98580.88;;;16.20;59.26
39357;BME280;25077;50.302;18.996;2022-10-16T08:34:42;98581.31;;;16.29;59.48
39357;BME280;25077;50.302;18.996;2022-10-16T08:37:45;98582.88;;;16.41;58.66
39357;BME280;25077;50.302;18.996;2022-10-16T08:40:47;98591.47;;;16.36;57.30
39357;BME280;25077;50.302;18.996;2022-10-16T08:44:03;98593.00;;;16.37;57.12
39357;BME280;25077;50.302;18.996;2022-10-16T08:47:13;98594.59;;;16.49;57.76
39357;BME280;25077;50.302;18.996;2022-10-16T08:50:22;98584.03;;;16.62;57.79
39357;BME280;25077;50.302;18.996;2022-10-16T08:53:31;98584.41;;;16.78;57.49
39357;BME280;25077;50.302;18.996;2022-10-16T08:56:35;98586.78;;;16.87;56.99
39357;BME280;25077;50.302;18.996;2022-10-16T08:59:37;98578.16;;;16.92;57.42
39357;BME280;25077;50.302;18.996;2022-10-16T09:02:47;98592.25;;;17.08;56.58
39357;BME280;25077;50.302;18.996;2022-10-16T09:06:04;98589.47;;;17.19;56.37
39357;BME280;25077;50.302;18.996;2022-10-16T09:09:23;98590.25;;;17.26;55.14
39357;BME280;25077;50.302;18.996;2022-10-16T09:12:40;98592.22;;;17.26;55.16
39357;BME280;25077;50.302;18.996;2022-10-16T09:15:52;98594.53;;;17.24;54.94
39357;BME280;25077;50.302;18.996;2022-10-16T09:19:01;98591.44;;;17.15;53.87
39357;BME280;25077;50.302;18.996;2022-10-16T09:22:12;98606.31;;;17.14;54.36
39357;BME280;25077;50.302;18.996;2022-10-16T09:25:20;98607.84;;;17.07;54.44
39357;BME280;25077;50.302;18.996;2022-10-16T09:28:23;98609.44;;;17.05;55.20
39357;BME280;25077;50.302;18.996;2022-10-16T09:31:25;98605.53;;;17.06;55.41
39357;BME280;25077;50.302;18.996;2022-10-16T09:34:31;98608.66;;;17.04;54.01
39357;BME280;25077;50.302;18.996;2022-10-16T09:37:35;98612.16;;;17.12;55.54
39357;BME280;25077;50.302;18.996;2022-10-16T09:40:39;98619.19;;;17.27;55.30
39357;BME280;25077;50.302;18.996;2022-10-16T09:43:48;98611.31;;;17.44;55.00
39357;BME280;25077;50.302;18.996;2022-10-16T09:47:01;98621.06;;;17.52;52.92
39357;BME280;25077;50.302;18.996;2022-10-16T09:50:05;98621.81;;;17.67;55.09
39357;BME280;25077;50.302;18.996;2022-10-16T09:53:20;98616.25;;;17.84;54.53
39357;BME280;25077;50.302;18.996;2022-10-16T09:56:26;98622.47;;;17.99;53.87
39357;BME280;25077;50.302;18.996;2022-10-16T09:59:29;98617.00;;;17.99;54.16
39357;BME280;25077;50.302;18.996;2022-10-16T10:02:34;98616.63;;;17.94;54.18
39357;BME280;25077;50.302;18.996;2022-10-16T10:05:39;98623.94;;;18.18;54.26
39357;BME280;25077;50.302;18.996;2022-10-16T10:08:55;98621.56;;;18.24;53.02
39357;BME280;25077;50.302;18.996;2022-10-16T10:12:00;98630.00;;;18.51;54.10
39357;BME280;25077;50.302;18.996;2022-10-16T10:15:07;98624.41;;;18.65;52.06
39357;BME280;25077;50.302;18.996;2022-10-16T10:18:16;98624.38;;;18.68;50.91
39357;BME280;25077;50.302;18.996;2022-10-16T10:21:20;98628.34;;;18.64;51.46
39357;BME280;25077;50.302;18.996;2022-10-16T10:24:22;98621.66;;;18.65;52.59
39357;BME280;25077;50.302;18.996;2022-10-16T10:27:32;98620.44;;;18.69;52.07
39357;BME280;25077;50.302;18.996;2022-10-16T10:30:42;98627.44;;;18.81;52.16
39357;BME280;25077;50.302;18.996;2022-10-16T10:33:50;98631.66;;;18.93;52.14
39357;BME280;25077;50.302;18.996;2022-10-16T10:36:59;98630.84;;;18.96;50.19
39357;BME280;25077;50.302;18.996;2022-10-16T10:40:14;98621.88;;;18.88;49.88
39357;BME280;25077;50.302;18.996;2022-10-16T10:43:31;98629.03;;;18.79;49.95
39357;BME280;25077;50.302;18.996;2022-10-16T10:46:44;98622.00;;;18.74;51.75
39357;BME280;25077;50.302;18.996;2022-10-16T10:49:55;98616.56;;;18.67;51.83
39357;BME280;25077;50.302;18.996;2022-10-16T10:53:06;98610.31;;;18.66;52.04
39357;BME280;25077;50.302;18.996;2022-10-16T10:56:20;98618.22;;;18.54;52.14
39357;BME280;25077;50.302;18.996;2022-10-16T11:03:05;98623.41;;;18.41;51.60
39357;BME280;25077;50.302;18.996;2022-10-16T11:06:16;98617.16;;;18.37;51.94
39357;BME280;25077;50.302;18.996;2022-10-16T11:09:21;98616.00;;;18.34;51.77
39357;BME280;25077;50.302;18.996;2022-10-16T11:12:27;98608.13;;;18.40;51.55
39357;BME280;25077;50.302;18.996;2022-10-16T11:15:35;98615.91;;;18.49;52.18
39357;BME280;25077;50.302;18.996;2022-10-16T11:18:46;98611.94;;;18.57;51.96
39357;BME280;25077;50.302;18.996;2022-10-16T11:21:55;98618.88;;;18.72;51.99
39357;BME280;25077;50.302;18.996;2022-10-16T11:25:06;98619.22;;;18.78;52.11
39357;BME280;25077;50.302;18.996;2022-10-16T11:28:16;98622.66;;;18.89;51.81
39357;BME280;25077;50.302;18.996;2022-10-16T11:31:28;98619.88;;;18.96;52.11
39357;BME280;25077;50.302;18.996;2022-10-16T11:34:36;98614.97;;;19.18;50.83
39357;BME280;25077;50.302;18.996;2022-10-16T11:37:43;98622.59;;;19.75;50.42
39357;BME280;25077;50.302;18.996;2022-10-16T11:40:50;98616.22;;;20.39;50.39
39357;BME280;25077;50.302;18.996;2022-10-16T11:44:15;98605.06;;;21.00;47.86
39357;BME280;25077;50.302;18.996;2022-10-16T11:47:27;98609.44;;;21.41;47.12
39357;BME280;25077;50.302;18.996;2022-10-16T11:50:37;98599.06;;;21.69;49.00
39357;BME280;25077;50.302;18.996;2022-10-16T11:53:45;98610.25;;;22.01;47.40
39357;BME280;25077;50.302;18.996;2022-10-16T11:56:54;98613.00;;;22.01;45.05
39357;BME280;25077;50.302;18.996;2022-10-16T12:00:02;98609.59;;;22.30;46.69
39357;BME280;25077;50.302;18.996;2022-10-16T12:03:19;98610.25;;;22.70;45.90
39357;BME280;25077;50.302;18.996;2022-10-16T12:06:27;98615.44;;;23.30;44.43
39357;BME280;25077;50.302;18.996;2022-10-16T12:09:33;98615.41;;;23.46;45.78
39357;BME280;25077;50.302;18.996;2022-10-16T12:12:38;98626.84;;;23.32;41.78
39357;BME280;25077;50.302;18.996;2022-10-16T12:15:42;98623.50;;;23.08;43.89
39357;BME280;25077;50.302;18.996;2022-10-16T12:18:47;98617.22;;;22.75;43.93
39357;BME280;25077;50.302;18.996;2022-10-16T12:21:50;98631.69;;;22.62;42.40
39357;BME280;25077;50.302;18.996;2022-10-16T12:24:54;98632.41;;;22.67;41.96
39357;BME280;25077;50.302;18.996;2022-10-16T12:27:57;98631.09;;;22.55;44.02
39357;BME280;25077;50.302;18.996;2022-10-16T12:31:02;98645.63;;;22.75;44.54
39357;BME280;25077;50.302;18.996;2022-10-16T12:34:21;98634.97;;;22.57;42.31
39357;BME280;25077;50.302;18.996;2022-10-16T12:37:26;98635.78;;;22.22;44.06
39357;BME280;25077;50.302;18.996;2022-10-16T12:40:32;98633.69;;;21.70;44.59
39357;BME280;25077;50.302;18.996;2022-10-16T12:43:38;98625.66;;;21.79;46.09
39357;BME280;25077;50.302;18.996;2022-10-16T12:46:40;98628.91;;;21.94;45.76
39357;BME280;25077;50.302;18.996;2022-10-16T12:49:48;98634.19;;;21.84;44.74
39357;BME280;25077;50.302;18.996;2022-10-16T12:52:51;98636.38;;;21.53;45.12
39357;BME280;25077;50.302;18.996;2022-10-16T12:56:02;98638.75;;;21.08;45.05
39357;BME280;25077;50.302;18.996;2022-10-16T12:59:12;98643.69;;;20.93;46.18
39357;BME280;25077;50.302;18.996;2022-10-16T13:06:08;98640.47;;;20.21;46.84
39357;BME280;25077;50.302;18.996;2022-10-16T13:09:28;98641.97;;;19.95;48.00
39357;BME280;25077;50.302;18.996;2022-10-16T13:12:57;98642.16;;;19.81;48.25
39357;BME280;25077;50.302;18.996;2022-10-16T13:16:14;98639.91;;;19.72;48.58
39357;BME280;25077;50.302;18.996;2022-10-16T13:19:24;98650.28;;;19.54;48.93
39357;BME280;25077;50.302;18.996;2022-10-16T13:22:35;98645.94;;;19.60;49.29
39357;BME280;25077;50.302;18.996;2022-10-16T13:25:50;98639.94;;;20.30;48.24
39357;BME280;25077;50.302;18.996;2022-10-16T13:28:59;98639.78;;;21.18;48.60
39357;BME280;25077;50.302;18.996;2022-10-16T13:32:07;98647.69;;;22.19;47.47
39357;BME280;25077;50.302;18.996;2022-10-16T13:35:23;98641.66;;;22.40;43.95
39357;BME280;25077;50.302;18.996;2022-10-16T13:38:28;98638.66;;;22.34;45.56
39357;BME280;25077;50.302;18.996;2022-10-16T13:41:30;98642.16;;;22.19;44.88
39357;BME280;25077;50.302;18.996;2022-10-16T13:44:36;98639.16;;;21.93;45.17
39357;BME280;25077;50.302;18.996;2022-10-16T13:47:41;98636.03;;;21.91;44.97
39357;BME280;25077;50.302;18.996;2022-10-16T13:50:43;98627.22;;;22.16;45.05
39357;BME280;25077;50.302;18.996;2022-10-16T13:53:47;98628.47;;;22.31;45.58
39357;BME280;25077;50.302;18.996;2022-10-16T13:56:49;98615.41;;;22.84;46.04
39357;BME280;25077;50.302;18.996;2022-10-16T13:59:53;98626.28;;;23.53;45.21
39357;BME280;25077;50.302;18.996;2022-10-16T14:02:58;98625.56;;;24.33;44.66
39357;BME280;25077;50.302;18.996;2022-10-16T14:06:03;98634.31;;;24.69;42.43
39357;BME280;25077;50.302;18.996;2022-10-16T14:09:21;98636.28;;;24.94;39.35
39357;BME280;25077;50.302;18.996;2022-10-16T14:12:23;98631.03;;;25.09;41.73
39357;BME280;25077;50.302;18.996;2022-10-16T14:15:26;98639.81;;;25.08;39.69
39357;BME280;25077;50.302;18.996;2022-10-16T14:18:28;98651.25;;;24.97;39.31
39357;BME280;25077;50.302;18.996;2022-10-16T14:21:30;98662.25;;;24.75;37.70
39357;BME280;25077;50.302;18.996;2022-10-16T14:24:34;98671.84;;;24.45;39.14
39357;BME280;25077;50.302;18.996;2022-10-16T14:27:37;98668.78;;;24.01;38.91
39357;BME280;25077;50.302;18.996;2022-10-16T14:30:49;98680.38;;;23.96;38.84
39357;BME280;25077;50.302;18.996;2022-10-16T14:33:51;98669.31;;;23.96;39.89
39357;BME280;25077;50.302;18.996;2022-10-16T14:36:54;98670.50;;;23.53;39.90
39357;BME280;25077;50.302;18.996;2022-10-16T14:39:58;98662.09;;;23.11;40.54
39357;BME280;25077;50.302;18.996;2022-10-16T14:43:00;98670.31;;;22.99;41.22
39357;BME280;25077;50.302;18.996;2022-10-16T14:46:06;98664.34;;;22.84;41.30
39357;BME280;25077;50.302;18.996;2022-10-16T14:49:16;98662.63;;;22.90;40.30
39357;BME280;25077;50.302;18.996;2022-10-16T14:52:19;98659.44;;;22.75;41.43
39357;BME280;25077;50.302;18.996;2022-10-16T14:55:22;98664.53;;;22.77;40.98
39357;BME280;25077;50.302;18.996;2022-10-16T14:58:24;98670.69;;;22.48;41.21
39357;BME280;25077;50.302;18.996;2022-10-16T15:01:27;98673.22;;;22.03;40.99
39357;BME280;25077;50.302;18.996;2022-10-16T15:04:29;98686.88;;;21.47;41.84
39357;BME280;25077;50.302;18.996;2022-10-16T15:07:31;98693.63;;;21.22;42.81
39357;BME280;25077;50.302;18.996;2022-10-16T15:10:40;98681.53;;;21.13;43.79
39357;BME280;25077;50.302;18.996;2022-10-16T15:13:42;98677.25;;;21.12;43.50
39357;BME280;25077;50.302;18.996;2022-10-16T15:16:44;98675.00;;;21.03;43.71
39357;BME280;25077;50.302;18.996;2022-10-16T15:19:47;98678.41;;;20.87;43.96
39357;BME280;25077;50.302;18.996;2022-10-16T15:22:49;98682.59;;;20.72;44.00
39357;BME280;25077;50.302;18.996;2022-10-16T15:25:53;98686.13;;;20.45;44.24
39357;BME280;25077;50.302;18.996;2022-10-16T15:28:56;98696.16;;;20.25;43.99
39357;BME280;25077;50.302;18.996;2022-10-16T15:31:58;98693.06;;;19.92;44.86
39357;BME280;25077;50.302;18.996;2022-10-16T15:35:00;98705.19;;;19.61;45.01
39357;BME280;25077;50.302;18.996;2022-10-16T15:38:01;98694.78;;;19.34;45.62
39357;BME280;25077;50.302;18.996;2022-10-16T15:41:05;98694.25;;;19.09;45.51
39357;BME280;25077;50.302;18.996;2022-10-16T15:44:07;98693.63;;;18.90;46.35
39357;BME280;25077;50.302;18.996;2022-10-16T15:47:09;98703.53;;;18.70;46.43
39357;BME280;25077;50.302;18.996;2022-10-16T15:50:12;98705.22;;;18.50;47.45
39357;BME280;25077;50.302;18.996;2022-10-16T15:53:14;98709.25;;;18.27;47.65
39357;BME280;25077;50.302;18.996;2022-10-16T15:56:17;98719.50;;;18.09;47.99
39357;BME280;25077;50.302;18.996;2022-10-16T15:59:19;98719.56;;;17.91;49.08
39357;BME280;25077;50.302;18.996;2022-10-16T16:02:21;98723.53;;;17.76;48.84
39357;BME280;25077;50.302;18.996;2022-10-16T16:05:23;98711.44;;;17.59;49.35
39357;BME280;25077;50.302;18.996;2022-10-16T16:08:25;98725.13;;;17.45;49.93
39357;BME280;25077;50.302;18.996;2022-10-16T16:11:29;98732.56;;;17.30;51.04
39357;BME280;25077;50.302;18.996;2022-10-16T16:14:32;98734.13;;;17.20;50.71